sensor_id;sensor_type;location;lat;lon;timestamp;pressure;altitude;pressure_sealevel;temperature;humidity
27840;BME280;15207;42.182;24.308;2024-01-30T00:00:37;101423.69;;;0.00;82.80
27840;BME280;15207;42.182;24.308;2024-01-30T00:03:03;101428.06;;;-0.05;82.79
27840;BME280;15207;42.182;24.308;2024-01-30T00:05:28;101427.19;;;-0.18;83.83
27840;BME280;15207;42.182;24.308;2024-01-30T00:07:54;101429.81;;;-0.18;84.49
27840;BME280;15207;42.182;24.308;2024-01-30T00:10:19;101428.97;;;-0.44;87.25
27840;BME280;15207;42.182;24.308;2024-01-30T00:12:46;101428.94;;;-0.30;88.36
27840;BME280;15207;42.182;24.308;2024-01-30T00:15:11;101426.31;;;-0.06;87.76
27840;BME280;15207;42.182;24.308;2024-01-30T00:17:37;101425.41;;;0.07;86.72
27840;BME280;15207;42.182;24.308;2024-01-30T00:20:02;101430.69;;;0.09;86.56
27840;BME280;15207;42.182;24.308;2024-01-30T00:22:33;101429.78;;;0.25;84.97
27840;BME280;15207;42.182;24.308;2024-01-30T00:25:00;101421.88;;;0.18;84.55
27840;BME280;15207;42.182;24.308;2024-01-30T00:27:25;101426.28;;;0.20;84.28
27840;BME280;15207;42.182;24.308;2024-01-30T00:29:51;101424.53;;;-0.01;84.96
27840;BME280;15207;42.182;24.308;2024-01-30T00:32:17;101426.28;;;0.14;84.30
27840;BME280;15207;42.182;24.308;2024-01-30T00:34:44;101429.84;;;-0.04;83.96
27840;BME280;15207;42.182;24.308;2024-01-30T00:37:10;101435.09;;;-0.35;86.08
27840;BME280;15207;42.182;24.308;2024-01-30T00:39:35;101435.09;;;-0.35;85.95
27840;BME280;15207;42.182;24.308;2024-01-30T00:42:00;101433.34;;;-0.15;84.61
27840;BME280;15207;42.182;24.308;2024-01-30T00:44:26;101427.16;;;0.07;83.48
27840;BME280;15207;42.182;24.308;2024-01-30T00:46:51;101431.59;;;-0.17;84.83
27840;BME280;15207;42.182;24.308;2024-01-30T00:49:16;101438.59;;;-0.11;85.79
27840;BME280;15207;42.182;24.308;2024-01-30T00:51:42;101432.47;;;-0.04;86.18
27840;BME280;15207;42.182;24.308;2024-01-30T00:54:07;101425.44;;;-0.08;86.58
27840;BME280;15207;42.182;24.308;2024-01-30T00:56:33;101435.97;;;0.10;85.95
27840;BME280;15207;42.182;24.308;2024-01-30T00:58:58;101434.19;;;0.09;85.54
27840;BME280;15207;42.182;24.308;2024-01-30T01:01:24;101437.72;;;-0.10;86.30
27840;BME280;15207;42.182;24.308;2024-01-30T01:03:49;101435.97;;;-0.35;87.58
27840;BME280;15207;42.182;24.308;2024-01-30T01:06:14;101436.84;;;-0.37;87.17
27840;BME280;15207;42.182;24.308;2024-01-30T01:08:40;101439.47;;;-0.41;87.78
27840;BME280;15207;42.182;24.308;2024-01-30T01:11:05;101438.59;;;-0.52;87.57
27840;BME280;15207;42.182;24.308;2024-01-30T01:13:31;101441.22;;;-0.64;86.91
27840;BME280;15207;42.182;24.308;2024-01-30T01:15:56;101443.84;;;-0.52;86.81
27840;BME280;15207;42.182;24.308;2024-01-30T01:18:21;101431.59;;;-0.58;87.46
27840;BME280;15207;42.182;24.308;2024-01-30T01:20:47;101437.66;;;-0.87;89.83
27840;BME280;15207;42.182;24.308;2024-01-30T01:23:12;101439.41;;;-0.89;93.10
27840;BME280;15207;42.182;24.308;2024-01-30T01:25:38;101432.38;;;-0.93;92.64
27840;BME280;15207;42.182;24.308;2024-01-30T01:28:03;101434.13;;;-0.97;93.03
27840;BME280;15207;42.182;24.308;2024-01-30T01:30:29;101436.72;;;-1.04;92.89
27840;BME280;15207;42.182;24.308;2024-01-30T01:32:55;101432.41;;;-0.76;90.51
27840;BME280;15207;42.182;24.308;2024-01-30T01:35:24;101434.16;;;-0.92;90.97
27840;BME280;15207;42.182;24.308;2024-01-30T01:37:51;101421.88;;;-0.82;90.66
27840;BME280;15207;42.182;24.308;2024-01-30T01:40:24;101423.63;;;-0.73;90.05
27840;BME280;15207;42.182;24.308;2024-01-30T01:42:51;101414.00;;;-0.59;89.96
27840;BME280;15207;42.182;24.308;2024-01-30T01:45:20;101415.78;;;-0.51;90.35
27840;BME280;15207;42.182;24.308;2024-01-30T01:47:48;101421.91;;;-0.65;89.75
27840;BME280;15207;42.182;24.308;2024-01-30T01:50:16;101416.63;;;-0.79;90.78
27840;BME280;15207;42.182;24.308;2024-01-30T01:52:47;101415.75;;;-0.70;89.97
27840;BME280;15207;42.182;24.308;2024-01-30T01:55:13;101423.66;;;-0.70;89.67
27840;BME280;15207;42.182;24.308;2024-01-30T01:57:40;101422.78;;;-0.75;90.53
27840;BME280;15207;42.182;24.308;2024-01-30T02:00:07;101420.06;;;-1.08;91.93
27840;BME280;15207;42.182;24.308;2024-01-30T02:02:35;101427.94;;;-1.10;92.94
27840;BME280;15207;42.182;24.308;2024-01-30T02:05:01;101417.34;;;-1.33;94.77
27840;BME280;15207;42.182;24.308;2024-01-30T02:07:28;101413.72;;;-1.57;97.18
27840;BME280;15207;42.182;24.308;2024-01-30T02:09:54;101414.59;;;-1.63;96.71
27840;BME280;15207;42.182;24.308;2024-01-30T02:12:19;101413.75;;;-1.54;96.28
27840;BME280;15207;42.182;24.308;2024-01-30T02:14:45;101412.97;;;-1.33;95.25
27840;BME280;15207;42.182;24.308;2024-01-30T02:17:12;101421.63;;;-1.51;94.59
27840;BME280;15207;42.182;24.308;2024-01-30T02:19:37;101422.56;;;-1.36;93.43
27840;BME280;15207;42.182;24.308;2024-01-30T02:22:03;101422.66;;;-1.24;92.75
27840;BME280;15207;42.182;24.308;2024-01-30T02:24:29;101421.69;;;-1.43;94.25
27840;BME280;15207;42.182;24.308;2024-01-30T02:26:54;101421.69;;;-1.44;95.03
27840;BME280;15207;42.182;24.308;2024-01-30T02:29:20;101422.56;;;-1.42;95.41
27840;BME280;15207;42.182;24.308;2024-01-30T02:31:46;101420.69;;;-1.68;95.20
27840;BME280;15207;42.182;24.308;2024-01-30T02:34:11;101419.81;;;-1.70;95.82
27840;BME280;15207;42.182;24.308;2024-01-30T02:36:37;101424.19;;;-1.71;96.40
27840;BME280;15207;42.182;24.308;2024-01-30T02:39:03;101429.50;;;-1.55;96.57
27840;BME280;15207;42.182;24.308;2024-01-30T02:41:28;101427.81;;;-1.45;95.88
27840;BME280;15207;42.182;24.308;2024-01-30T02:43:54;101430.38;;;-1.53;95.43
27840;BME280;15207;42.182;24.308;2024-01-30T02:46:19;101423.41;;;-1.47;93.53
27840;BME280;15207;42.182;24.308;2024-01-30T02:48:44;101424.22;;;-1.62;94.81
27840;BME280;15207;42.182;24.308;2024-01-30T02:51:10;101418.06;;;-1.67;96.15
27840;BME280;15207;42.182;24.308;2024-01-30T02:53:35;101414.53;;;-1.74;96.68
27840;BME280;15207;42.182;24.308;2024-01-30T02:56:02;101426.91;;;-1.51;95.70
27840;BME280;15207;42.182;24.308;2024-01-30T02:58:27;101424.16;;;-1.73;94.63
27840;BME280;15207;42.182;24.308;2024-01-30T03:00:52;101421.50;;;-1.80;94.30
27840;BME280;15207;42.182;24.308;2024-01-30T03:03:18;101426.72;;;-1.87;93.64
27840;BME280;15207;42.182;24.308;2024-01-30T03:05:43;101424.94;;;-1.86;93.66
27840;BME280;15207;42.182;24.308;2024-01-30T03:08:09;101427.59;;;-1.84;94.28
27840;BME280;15207;42.182;24.308;2024-01-30T03:10:34;101423.19;;;-1.92;95.06
27840;BME280;15207;42.182;24.308;2024-01-30T03:12:59;101429.34;;;-1.87;96.00
27840;BME280;15207;42.182;24.308;2024-01-30T03:15:25;101425.00;;;-1.78;95.04
27840;BME280;15207;42.182;24.308;2024-01-30T03:17:50;101425.88;;;-1.79;95.90
27840;BME280;15207;42.182;24.308;2024-01-30T03:20:15;101425.91;;;-1.76;96.16
27840;BME280;15207;42.182;24.308;2024-01-30T03:22:41;101420.50;;;-1.96;97.03
27840;BME280;15207;42.182;24.308;2024-01-30T03:25:06;101420.72;;;-1.61;96.29
27840;BME280;15207;42.182;24.308;2024-01-30T03:27:32;101420.56;;;-1.90;95.99
27840;BME280;15207;42.182;24.308;2024-01-30T03:29:57;101423.31;;;-1.68;96.26
27840;BME280;15207;42.182;24.308;2024-01-30T03:32:22;101427.72;;;-1.60;94.49
27840;BME280;15207;42.182;24.308;2024-01-30T03:34:48;101413.72;;;-1.57;93.86
27840;BME280;15207;42.182;24.308;2024-01-30T03:37:13;101420.91;;;-1.20;91.55
27840;BME280;15207;42.182;24.308;2024-01-30T03:39:39;101414.72;;;-1.38;91.63
27840;BME280;15207;42.182;24.308;2024-01-30T03:42:04;101417.28;;;-1.44;91.96
27840;BME280;15207;42.182;24.308;2024-01-30T03:44:29;101418.13;;;-1.48;91.71
27840;BME280;15207;42.182;24.308;2024-01-30T03:46:54;101427.72;;;-1.66;93.83
27840;BME280;15207;42.182;24.308;2024-01-30T03:49:20;101430.44;;;-1.49;92.75
27840;BME280;15207;42.182;24.308;2024-01-30T03:51:45;101429.59;;;-1.37;92.20
27840;BME280;15207;42.182;24.308;2024-01-30T03:54:12;101425.25;;;-1.27;91.97
27840;BME280;15207;42.182;24.308;2024-01-30T03:56:38;101431.44;;;-1.17;89.89
27840;BME280;15207;42.182;24.308;2024-01-30T03:59:03;101423.53;;;-1.20;90.96
27840;BME280;15207;42.182;24.308;2024-01-30T04:01:28;101426.22;;;-1.03;90.37
27840;BME280;15207;42.182;24.308;2024-01-30T04:03:54;101424.41;;;-1.21;91.37
27840;BME280;15207;42.182;24.308;2024-01-30T04:06:19;101425.31;;;-1.11;93.16
27840;BME280;15207;42.182;24.308;2024-01-30T04:08:45;101421.75;;;-1.24;91.82
27840;BME280;15207;42.182;24.308;2024-01-30T04:11:10;101430.63;;;-0.99;91.50
27840;BME280;15207;42.182;24.308;2024-01-30T04:13:35;101421.03;;;-0.75;89.97
27840;BME280;15207;42.182;24.308;2024-01-30T04:16:01;101432.44;;;-0.77;89.17
27840;BME280;15207;42.182;24.308;2024-01-30T04:18:28;101428.94;;;-0.59;88.78
27840;BME280;15207;42.182;24.308;2024-01-30T04:20:53;101425.38;;;-0.93;90.09
27840;BME280;15207;42.182;24.308;2024-01-30T04:23:19;101424.53;;;-0.57;89.45
27840;BME280;15207;42.182;24.308;2024-01-30T04:25:44;101422.78;;;-0.54;88.00
27840;BME280;15207;42.182;24.308;2024-01-30T04:28:10;101421.91;;;-0.63;88.05
27840;BME280;15207;42.182;24.308;2024-01-30T04:30:39;101427.19;;;-0.62;88.70
27840;BME280;15207;42.182;24.308;2024-01-30T04:33:05;101422.78;;;-0.68;88.67
27840;BME280;15207;42.182;24.308;2024-01-30T04:35:30;101427.19;;;-0.70;89.37
27840;BME280;15207;42.182;24.308;2024-01-30T04:37:56;101431.56;;;-0.56;90.67
27840;BME280;15207;42.182;24.308;2024-01-30T04:40:21;101439.50;;;-0.51;91.85
27840;BME280;15207;42.182;24.308;2024-01-30T04:42:46;101438.63;;;-0.22;90.71
27840;BME280;15207;42.182;24.308;2024-01-30T04:45:12;101438.59;;;-0.35;90.02
27840;BME280;15207;42.182;24.308;2024-01-30T04:47:38;101433.34;;;-0.39;90.74
27840;BME280;15207;42.182;24.308;2024-01-30T04:50:06;101436.81;;;-0.69;91.40
27840;BME280;15207;42.182;24.308;2024-01-30T04:52:31;101444.72;;;-0.69;92.13
27840;BME280;15207;42.182;24.308;2024-01-30T04:54:57;101449.09;;;-0.82;91.72
27840;BME280;15207;42.182;24.308;2024-01-30T04:57:22;101457.88;;;-0.76;90.86
27840;BME280;15207;42.182;24.308;2024-01-30T04:59:48;101449.97;;;-0.73;91.39
27840;BME280;15207;42.182;24.308;2024-01-30T05:02:13;101457.91;;;-0.53;90.47
27840;BME280;15207;42.182;24.308;2024-01-30T05:04:40;101454.41;;;-0.39;88.42
27840;BME280;15207;42.182;24.308;2024-01-30T05:07:06;101455.31;;;-0.19;88.37
27840;BME280;15207;42.182;24.308;2024-01-30T05:09:31;101464.06;;;-0.35;89.42
27840;BME280;15207;42.182;24.308;2024-01-30T05:11:57;101453.53;;;-0.38;90.55
27840;BME280;15207;42.182;24.308;2024-01-30T05:14:23;101461.44;;;-0.40;91.13
27840;BME280;15207;42.182;24.308;2024-01-30T05:16:49;101463.19;;;-0.42;91.19
27840;BME280;15207;42.182;24.308;2024-01-30T05:19:14;101465.81;;;-0.33;90.75
27840;BME280;15207;42.182;24.308;2024-01-30T05:21:40;101465.81;;;-0.37;90.69
27840;BME280;15207;42.182;24.308;2024-01-30T05:24:06;101466.72;;;-0.24;90.42
27840;BME280;15207;42.182;24.308;2024-01-30T05:26:32;101463.22;;;0.00;89.51
27840;BME280;15207;42.182;24.308;2024-01-30T05:28:57;101459.69;;;0.03;89.79
27840;BME280;15207;42.182;24.308;2024-01-30T05:31:23;101466.72;;;-0.15;90.65
27840;BME280;15207;42.182;24.308;2024-01-30T05:33:48;101460.56;;;-0.20;91.29
27840;BME280;15207;42.182;24.308;2024-01-30T05:36:14;101466.69;;;-0.49;92.76
27840;BME280;15207;42.182;24.308;2024-01-30T05:38:39;101470.19;;;-0.58;94.16
27840;BME280;15207;42.182;24.308;2024-01-30T05:41:05;101466.69;;;-0.56;94.21
27840;BME280;15207;42.182;24.308;2024-01-30T05:43:30;101467.59;;;-0.41;94.38
27840;BME280;15207;42.182;24.308;2024-01-30T05:45:55;101470.25;;;-0.22;93.49
27840;BME280;15207;42.182;24.308;2024-01-30T05:48:21;101466.69;;;-0.26;92.54
27840;BME280;15207;42.182;24.308;2024-01-30T05:50:46;101461.44;;;-0.21;92.06
27840;BME280;15207;42.182;24.308;2024-01-30T05:53:12;101469.34;;;-0.23;92.57
27840;BME280;15207;42.182;24.308;2024-01-30T05:55:37;101467.59;;;-0.24;92.46
27840;BME280;15207;42.182;24.308;2024-01-30T05:58:03;101470.22;;;-0.18;91.88
27840;BME280;15207;42.182;24.308;2024-01-30T06:00:29;101472.84;;;-0.27;91.83
27840;BME280;15207;42.182;24.308;2024-01-30T06:02:54;101466.69;;;-0.57;92.21
27840;BME280;15207;42.182;24.308;2024-01-30T06:05:20;101464.03;;;-0.59;93.68
27840;BME280;15207;42.182;24.308;2024-01-30T06:07:45;101465.78;;;-0.61;93.93
27840;BME280;15207;42.182;24.308;2024-01-30T06:10:11;101467.56;;;-0.55;92.90
27840;BME280;15207;42.182;24.308;2024-01-30T06:12:37;101472.84;;;-0.38;90.85
27840;BME280;15207;42.182;24.308;2024-01-30T06:15:02;101470.19;;;-0.50;90.42
27840;BME280;15207;42.182;24.308;2024-01-30T06:17:28;101471.94;;;-0.57;91.46
27840;BME280;15207;42.182;24.308;2024-01-30T06:19:53;101480.69;;;-0.74;90.53
27840;BME280;15207;42.182;24.308;2024-01-30T06:22:19;101481.47;;;-1.08;90.82
27840;BME280;15207;42.182;24.308;2024-01-30T06:24:45;101477.91;;;-1.16;91.30
27840;BME280;15207;42.182;24.308;2024-01-30T06:27:13;101468.22;;;-1.25;92.31
27840;BME280;15207;42.182;24.308;2024-01-30T06:29:38;101481.53;;;-0.86;90.05
27840;BME280;15207;42.182;24.308;2024-01-30T06:32:04;101485.00;;;-0.95;89.61
27840;BME280;15207;42.182;24.308;2024-01-30T06:34:29;101480.63;;;-0.93;90.06
27840;BME280;15207;42.182;24.308;2024-01-30T06:36:55;101491.16;;;-0.93;90.21
27840;BME280;15207;42.182;24.308;2024-01-30T06:39:20;101485.94;;;-0.80;90.25
27840;BME280;15207;42.182;24.308;2024-01-30T06:41:46;101495.47;;;-1.07;91.87
27840;BME280;15207;42.182;24.308;2024-01-30T06:44:12;101505.03;;;-1.23;92.04
27840;BME280;15207;42.182;24.308;2024-01-30T06:46:37;101503.34;;;-1.09;91.39
27840;BME280;15207;42.182;24.308;2024-01-30T06:49:03;101506.03;;;-1.04;91.42
27840;BME280;15207;42.182;24.308;2024-01-30T06:51:28;101501.63;;;-1.08;92.10
27840;BME280;15207;42.182;24.308;2024-01-30T06:53:54;101506.13;;;-0.67;91.29
27840;BME280;15207;42.182;24.308;2024-01-30T06:56:19;101500.00;;;-0.70;91.28
27840;BME280;15207;42.182;24.308;2024-01-30T06:58:47;101507.97;;;-0.42;91.44
27840;BME280;15207;42.182;24.308;2024-01-30T07:01:14;101504.47;;;-0.32;90.84
27840;BME280;15207;42.182;24.308;2024-01-30T07:03:40;101493.94;;;-0.05;90.34
27840;BME280;15207;42.182;24.308;2024-01-30T07:06:05;101500.09;;;0.08;89.63
27840;BME280;15207;42.182;24.308;2024-01-30T07:08:31;101500.06;;;-0.23;89.51
27840;BME280;15207;42.182;24.308;2024-01-30T07:10:56;101507.97;;;-0.34;91.06
27840;BME280;15207;42.182;24.308;2024-01-30T07:13:22;101501.84;;;-0.01;89.93
27840;BME280;15207;42.182;24.308;2024-01-30T07:15:47;101500.06;;;-0.06;90.33
27840;BME280;15207;42.182;24.308;2024-01-30T07:18:13;101501.84;;;0.13;89.23
27840;BME280;15207;42.182;24.308;2024-01-30T07:20:41;101500.09;;;0.14;89.01
27840;BME280;15207;42.182;24.308;2024-01-30T07:23:11;101514.13;;;0.24;87.75
27840;BME280;15207;42.182;24.308;2024-01-30T07:25:40;101510.63;;;0.22;86.87
27840;BME280;15207;42.182;24.308;2024-01-30T07:28:06;101504.41;;;0.65;86.80
27840;BME280;15207;42.182;24.308;2024-01-30T07:30:32;101500.88;;;0.66;83.47
27840;BME280;15207;42.182;24.308;2024-01-30T07:32:57;101503.56;;;0.52;84.47
27840;BME280;15207;42.182;24.308;2024-01-30T07:35:23;101499.13;;;0.62;84.68
27840;BME280;15207;42.182;24.308;2024-01-30T07:37:48;101508.75;;;0.83;84.35
27840;BME280;15207;42.182;24.308;2024-01-30T07:40:14;101507.81;;;0.95;83.15
27840;BME280;15207;42.182;24.308;2024-01-30T07:42:39;101505.16;;;1.01;82.60
27840;BME280;15207;42.182;24.308;2024-01-30T07:45:05;101507.66;;;1.26;81.75
27840;BME280;15207;42.182;24.308;2024-01-30T07:47:30;101504.94;;;1.43;80.25
27840;BME280;15207;42.182;24.308;2024-01-30T07:49:56;101498.75;;;1.49;79.41
27840;BME280;15207;42.182;24.308;2024-01-30T07:52:21;101494.38;;;1.48;78.76
27840;BME280;15207;42.182;24.308;2024-01-30T07:54:46;101496.13;;;1.48;78.62
27840;BME280;15207;42.182;24.308;2024-01-30T07:57:12;101497.72;;;1.72;78.07
27840;BME280;15207;42.182;24.308;2024-01-30T07:59:37;101488.13;;;1.58;77.32
27840;BME280;15207;42.182;24.308;2024-01-30T08:02:03;101493.31;;;1.71;77.14
27840;BME280;15207;42.182;24.308;2024-01-30T08:04:28;101488.75;;;1.90;75.51
27840;BME280;15207;42.182;24.308;2024-01-30T08:06:54;101501.19;;;1.79;74.07
27840;BME280;15207;42.182;24.308;2024-01-30T08:09:19;101484.34;;;1.92;74.33
27840;BME280;15207;42.182;24.308;2024-01-30T08:11:44;101487.88;;;1.91;74.12
27840;BME280;15207;42.182;24.308;2024-01-30T08:14:10;101486.94;;;2.00;72.55
27840;BME280;15207;42.182;24.308;2024-01-30T08:16:35;101476.88;;;2.36;72.51
27840;BME280;15207;42.182;24.308;2024-01-30T08:19:01;101470.91;;;2.17;71.23
27840;BME280;15207;42.182;24.308;2024-01-30T08:21:26;101476.78;;;2.49;72.23
27840;BME280;15207;42.182;24.308;2024-01-30T08:23:52;101485.38;;;2.67;71.66
27840;BME280;15207;42.182;24.308;2024-01-30T08:26:17;101481.75;;;2.75;71.80
27840;BME280;15207;42.182;24.308;2024-01-30T08:28:43;101480.00;;;2.74;70.56
27840;BME280;15207;42.182;24.308;2024-01-30T08:31:10;101476.44;;;2.78;71.09
27840;BME280;15207;42.182;24.308;2024-01-30T08:33:36;101471.63;;;3.10;69.32
27840;BME280;15207;42.182;24.308;2024-01-30T08:36:01;101468.78;;;3.26;67.61
27840;BME280;15207;42.182;24.308;2024-01-30T08:38:27;101468.88;;;3.18;66.54
27840;BME280;15207;42.182;24.308;2024-01-30T08:40:52;101475.66;;;3.38;64.75
27840;BME280;15207;42.182;24.308;2024-01-30T08:43:18;101475.53;;;3.47;63.55
27840;BME280;15207;42.182;24.308;2024-01-30T08:45:44;101478.13;;;3.50;63.42
27840;BME280;15207;42.182;24.308;2024-01-30T08:48:09;101476.53;;;3.38;63.54
27840;BME280;15207;42.182;24.308;2024-01-30T08:50:34;101476.03;;;3.11;64.24
27840;BME280;15207;42.182;24.308;2024-01-30T08:53:00;101472.69;;;3.60;63.18
27840;BME280;15207;42.182;24.308;2024-01-30T08:55:25;101469.75;;;3.80;62.49
27840;BME280;15207;42.182;24.308;2024-01-30T08:57:51;101463.22;;;4.00;61.25
27840;BME280;15207;42.182;24.308;2024-01-30T09:00:17;101466.09;;;3.86;61.63
27840;BME280;15207;42.182;24.308;2024-01-30T09:02:43;101467.66;;;3.99;59.74
27840;BME280;15207;42.182;24.308;2024-01-30T09:05:08;101467.03;;;3.81;59.21
27840;BME280;15207;42.182;24.308;2024-01-30T09:07:33;101459.94;;;3.83;62.23
27840;BME280;15207;42.182;24.308;2024-01-30T09:09:59;101462.50;;;3.90;61.32
27840;BME280;15207;42.182;24.308;2024-01-30T09:12:25;101462.34;;;3.99;60.56
27840;BME280;15207;42.182;24.308;2024-01-30T09:14:50;101462.16;;;4.10;59.93
27840;BME280;15207;42.182;24.308;2024-01-30T09:17:15;101461.31;;;4.08;58.45
27840;BME280;15207;42.182;24.308;2024-01-30T09:19:41;101459.28;;;4.22;57.08
27840;BME280;15207;42.182;24.308;2024-01-30T09:22:06;101450.25;;;4.33;56.02
27840;BME280;15207;42.182;24.308;2024-01-30T09:24:31;101452.22;;;4.23;57.09
27840;BME280;15207;42.182;24.308;2024-01-30T09:26:57;101447.41;;;4.44;56.48
27840;BME280;15207;42.182;24.308;2024-01-30T09:29:22;101443.69;;;4.53;55.84
27840;BME280;15207;42.182;24.308;2024-01-30T09:31:48;101442.81;;;4.52;54.67
27840;BME280;15207;42.182;24.308;2024-01-30T09:34:13;101437.06;;;4.74;53.96
27840;BME280;15207;42.182;24.308;2024-01-30T09:36:39;101444.38;;;4.62;53.24
27840;BME280;15207;42.182;24.308;2024-01-30T09:39:04;101430.19;;;5.06;50.66
27840;BME280;15207;42.182;24.308;2024-01-30T09:41:32;101428.41;;;5.07;50.49
27840;BME280;15207;42.182;24.308;2024-01-30T09:43:59;101425.13;;;5.35;49.95
27840;BME280;15207;42.182;24.308;2024-01-30T09:46:26;101419.50;;;5.47;48.97
27840;BME280;15207;42.182;24.308;2024-01-30T09:48:53;101412.00;;;5.65;48.23
27840;BME280;15207;42.182;24.308;2024-01-30T09:51:20;101406.38;;;5.77;46.39
27840;BME280;15207;42.182;24.308;2024-01-30T09:53:48;101406.03;;;5.90;46.96
27840;BME280;15207;42.182;24.308;2024-01-30T09:56:14;101397.91;;;5.96;46.21
27840;BME280;15207;42.182;24.308;2024-01-30T09:58:39;101391.78;;;6.27;44.40
27840;BME280;15207;42.182;24.308;2024-01-30T10:01:05;101393.03;;;6.47;44.60
27840;BME280;15207;42.182;24.308;2024-01-30T10:03:31;101392.59;;;6.61;43.88
27840;BME280;15207;42.182;24.308;2024-01-30T10:05:56;101390.19;;;6.53;42.42
27840;BME280;15207;42.182;24.308;2024-01-30T10:08:22;101380.94;;;6.35;42.34
27840;BME280;15207;42.182;24.308;2024-01-30T10:10:49;101378.00;;;6.44;42.15
27840;BME280;15207;42.182;24.308;2024-01-30T10:13:15;101378.53;;;6.26;42.84
27840;BME280;15207;42.182;24.308;2024-01-30T10:15:41;101373.00;;;6.00;42.39
27840;BME280;15207;42.182;24.308;2024-01-30T10:18:07;101371.28;;;6.31;42.79
27840;BME280;15207;42.182;24.308;2024-01-30T10:20:34;101367.09;;;6.54;41.83
27840;BME280;15207;42.182;24.308;2024-01-30T10:22:59;101359.88;;;6.26;41.18
27840;BME280;15207;42.182;24.308;2024-01-30T10:25:25;101360.03;;;6.53;42.11
27840;BME280;15207;42.182;24.308;2024-01-30T10:27:54;101366.00;;;6.29;42.13
27840;BME280;15207;42.182;24.308;2024-01-30T10:30:24;101360.56;;;6.64;41.71
27840;BME280;15207;42.182;24.308;2024-01-30T10:32:49;101360.56;;;6.34;41.41
27840;BME280;15207;42.182;24.308;2024-01-30T10:35:15;101363.50;;;6.23;41.93
27840;BME280;15207;42.182;24.308;2024-01-30T10:37:47;101367.91;;;5.91;42.40
27840;BME280;15207;42.182;24.308;2024-01-30T10:40:13;101369.06;;;5.80;42.61
27840;BME280;15207;42.182;24.308;2024-01-30T10:42:42;101356.53;;;5.49;42.69
27840;BME280;15207;42.182;24.308;2024-01-30T10:45:10;101365.84;;;5.31;43.34
27840;BME280;15207;42.182;24.308;2024-01-30T10:47:46;101361.63;;;5.59;43.44
27840;BME280;15207;42.182;24.308;2024-01-30T10:50:14;101355.03;;;5.39;43.33
27840;BME280;15207;42.182;24.308;2024-01-30T10:52:40;101363.50;;;5.19;43.56
27840;BME280;15207;42.182;24.308;2024-01-30T10:55:07;101364.69;;;5.05;43.90
27840;BME280;15207;42.182;24.308;2024-01-30T10:57:37;101354.94;;;5.43;43.70
27840;BME280;15207;42.182;24.308;2024-01-30T11:00:07;101355.28;;;5.64;43.54
27840;BME280;15207;42.182;24.308;2024-01-30T11:02:38;101347.75;;;5.47;43.46
27840;BME280;15207;42.182;24.308;2024-01-30T11:05:05;101350.06;;;5.60;43.52
27840;BME280;15207;42.182;24.308;2024-01-30T11:07:30;101348.44;;;5.55;43.50
27840;BME280;15207;42.182;24.308;2024-01-30T11:12:25;101343.97;;;5.56;43.55
27840;BME280;15207;42.182;24.308;2024-01-30T11:15:08;101334.31;;;5.52;43.30
27840;BME280;15207;42.182;24.308;2024-01-30T11:18:00;101341.38;;;5.16;44.41
27840;BME280;15207;42.182;24.308;2024-01-30T11:20:28;101342.50;;;5.44;43.77
27840;BME280;15207;42.182;24.308;2024-01-30T11:22:56;101335.56;;;5.73;43.24
27840;BME280;15207;42.182;24.308;2024-01-30T11:25:22;101330.56;;;5.61;43.20
27840;BME280;15207;42.182;24.308;2024-01-30T11:27:53;101336.94;;;5.19;43.56
27840;BME280;15207;42.182;24.308;2024-01-30T11:30:26;101333.06;;;5.32;44.31
27840;BME280;15207;42.182;24.308;2024-01-30T11:35:30;101328.78;;;5.94;42.44
27840;BME280;15207;42.182;24.308;2024-01-30T11:37:57;101315.00;;;6.13;43.12
27840;BME280;15207;42.182;24.308;2024-01-30T11:40:23;101315.19;;;6.37;43.05
27840;BME280;15207;42.182;24.308;2024-01-30T11:42:51;101311.66;;;6.38;43.04
27840;BME280;15207;42.182;24.308;2024-01-30T11:45:17;101308.16;;;6.65;42.52
27840;BME280;15207;42.182;24.308;2024-01-30T11:47:42;101305.56;;;6.63;42.41
27840;BME280;15207;42.182;24.308;2024-01-30T11:50:08;101302.13;;;6.59;42.57
27840;BME280;15207;42.182;24.308;2024-01-30T11:52:36;101293.13;;;6.64;42.43
27840;BME280;15207;42.182;24.308;2024-01-30T11:55:04;101301.00;;;6.38;42.30
27840;BME280;15207;42.182;24.308;2024-01-30T11:57:30;101287.34;;;6.49;42.39
27840;BME280;15207;42.182;24.308;2024-01-30T11:59:55;101287.50;;;6.73;41.70
27840;BME280;15207;42.182;24.308;2024-01-30T12:02:21;101285.63;;;6.77;41.69
27840;BME280;15207;42.182;24.308;2024-01-30T12:04:46;101275.13;;;6.72;41.28
27840;BME280;15207;42.182;24.308;2024-01-30T12:07:12;101280.09;;;6.24;41.79
27840;BME280;15207;42.182;24.308;2024-01-30T12:09:41;101273.50;;;6.38;41.87
27840;BME280;15207;42.182;24.308;2024-01-30T12:12:07;101279.41;;;6.17;41.71
27840;BME280;15207;42.182;24.308;2024-01-30T12:14:38;101268.44;;;6.58;42.06
27840;BME280;15207;42.182;24.308;2024-01-30T12:17:04;101262.34;;;6.55;42.21
27840;BME280;15207;42.182;24.308;2024-01-30T12:19:30;101258.38;;;6.68;41.99
27840;BME280;15207;42.182;24.308;2024-01-30T12:21:56;101250.38;;;6.68;41.24
27840;BME280;15207;42.182;24.308;2024-01-30T12:24:25;101243.91;;;6.18;41.92
27840;BME280;15207;42.182;24.308;2024-01-30T12:26:50;101235.19;;;6.43;41.66
27840;BME280;15207;42.182;24.308;2024-01-30T12:29:17;101241.84;;;6.57;41.88
27840;BME280;15207;42.182;24.308;2024-01-30T12:31:42;101233.94;;;6.82;41.08
27840;BME280;15207;42.182;24.308;2024-01-30T12:34:09;101223.28;;;7.09;40.87
27840;BME280;15207;42.182;24.308;2024-01-30T12:36:34;101224.97;;;7.12;40.18
27840;BME280;15207;42.182;24.308;2024-01-30T12:39:01;101222.53;;;7.06;40.70
27840;BME280;15207;42.182;24.308;2024-01-30T12:41:26;101224.53;;;6.72;40.92
27840;BME280;15207;42.182;24.308;2024-01-30T12:43:54;101220.38;;;6.63;40.99